Terminal Aerodrome Forecast
Issued by NWS Atlanta, GA

Home | Current Version | Previous Version | Text Only | Print | Product List | Glossary On
Versions: 1 2 3 4 5 6 7 8 9 10 11 12 13 14 15 16
000
FTUS42 KFFC 312300 RRA
TAFMCN
TAF
KMCN 312342Z 0100/0124 03004KT P6SM VCSH BKN040
     FM010100 07006KT P6SM BKN050
     FM010500 05005KT P6SM BKN018
     FM010800 06003KT P6SM BKN007
     FM011500 06005KT P6SM BKN015 BKN025
     FM011700 04004KT P6SM BKN045 PROB30 0117/0123 4SM -SHRA BR=

USA.gov is the U.S. government's official web portal to all federal, state and local government web resources and services.